Las Vegas, NM (87701)

12:08 AM MST on February 13, 2016 (GMT -0700)
North 8th. Street Extension | | Change Station
CLOSE
Current Station
Personal Weather Station
Location: Las Vegas, NM
Elevation: 6526 ft
Nearby Weather Stations

Elev 6526 ft 35.61 °N, 105.23 °W | Updated 10 seconds ago

Clear
Clear
34.9 °F
Feels Like 35 °F
N
0.0
Wind Variable Wind from North
Gusts 0.0 mph

Today
High -- | Low -- °F
--% Chance of Precip.
Yesterday
High -- | Low -- °F
Precip. -- in
Pressure 30.21 in
Visibility 10.0 miles
Clouds Clear
Windchill 35 °F
Dew Point 16 °F
Humidity 45%
Rainfall 0.00 in
Snow Depth Not available.
6:50 AM 5:40 PM
Waxing Crescent, 28% visible
METAR KLVS 130653Z AUTO 20010KT 10SM CLR 03/M07 A3036 RMK AO2 SLP229 T00331067 401561006
Pressure 30.21 in
Visibility 10.0 miles
Clouds Clear
Windchill 35 °F
Dew Point 16 °F
Humidity 45%
Rainfall 0.00 in
Snow Depth Not available.
6:50 AM 5:40 PM
Waxing Crescent, 28% visible
METAR KLVS 130653Z AUTO 20010KT 10SM CLR 03/M07 A3036 RMK AO2 SLP229 T00331067 401561006

10-Day Weather Forecast

Almanac

Astronomy

Feb. 13, 2016 Rise Set
Actual Time
Civil Twilight
Nautical Twilight
Astronomical Twilight
Moon
Length of Visible Light
Length of Day
Tomorrow will be .
, % of the Moon is Illuminated

Today's Extremes

State Highs State Lows

Community

WunderPhotos

Upload Photos

1,892,519 photos uploaded!

WunderBlog® & News

Nearby

Air Quality

  Air Quality AQ Index Pollutant
Not available.

Snow Depth

Station Depth Elevation

Earthquake Activity

City Distance Mag. Time & Date
Minimum magnitude displayed is 2.5.

Coastal Water Temperatures

Place Temperature

Stations

Nearby Weather Stations

Station Location Temp. Windchill Dew Point Humidity Wind Precip. Elev Updated Type
                   

Watches & Warnings

There are currently no watches in effect.